createdAt,value
2019-02-26T00:03:13.920Z,10.50
2019-02-26T00:08:21.498Z,10.00
2019-02-26T00:13:24.977Z,12.00
2019-02-26T00:18:28.823Z,8.25
2019-02-26T00:23:32.624Z,8.00
2019-02-26T00:28:38.649Z,9.20
2019-02-26T00:33:41.906Z,11.00
2019-02-26T00:38:45.777Z,9.00
2019-02-26T00:43:53.156Z,9.00
2019-02-26T00:48:56.382Z,11.00
2019-02-26T00:54:01.985Z,9.00
2019-02-26T00:59:06.170Z,9.20
2019-02-26T01:04:09.938Z,7.80
2019-02-26T01:09:15.213Z,8.00
2019-02-26T01:14:20.337Z,9.00
2019-02-26T01:19:24.480Z,8.25
2019-02-26T01:24:30.441Z,10.00
2019-02-26T01:29:33.774Z,8.00
2019-02-26T01:34:38.296Z,8.00
2019-02-26T01:39:44.825Z,8.25
2019-02-26T01:44:48.557Z,9.25
2019-02-26T01:49:52.368Z,8.50
2019-02-26T01:54:57.829Z,9.00
2019-02-26T02:00:01.761Z,9.00
2019-02-26T02:05:07.090Z,7.83
2019-02-26T02:10:12.418Z,8.00
2019-02-26T02:15:20.476Z,8.25
2019-02-26T02:20:21.735Z,8.60
2019-02-26T02:25:28.975Z,7.60
2019-02-26T02:30:32.628Z,8.00
2019-02-26T02:35:36.464Z,7.75
2019-02-26T02:40:43.009Z,10.75
2019-02-26T02:45:47.493Z,9.00
2019-02-26T02:50:51.238Z,7.00
2019-02-26T02:55:55.027Z,9.20
2019-02-26T03:01:00.306Z,7.75
2019-02-26T03:06:06.860Z,7.20
2019-02-26T03:11:09.726Z,8.00
2019-02-26T03:16:15.808Z,8.50
2019-02-26T03:21:20.137Z,8.50
2019-02-26T03:26:25.889Z,8.25
2019-02-26T03:31:35.114Z,8.00
2019-02-26T03:36:38.158Z,6.00
2019-02-26T03:41:43.081Z,7.75
2019-02-26T03:46:46.582Z,6.75
2019-02-26T03:51:50.362Z,7.00
2019-02-26T03:56:54.139Z,8.20
2019-02-26T04:01:57.925Z,7.00
2019-02-26T04:07:04.295Z,7.50
2019-02-26T04:12:08.387Z,7.00
2019-02-26T04:17:12.719Z,8.75
2019-02-26T04:22:39.190Z,9.50
2019-02-26T04:27:59.924Z,8.00
2019-02-26T04:33:27.824Z,10.25
2019-02-26T04:39:07.503Z,7.00
2019-02-26T04:44:40.251Z,7.80
2019-02-26T04:49:44.195Z,6.20
2019-02-26T04:54:47.963Z,7.00
2019-02-26T04:59:51.759Z,6.50
2019-02-26T05:04:55.551Z,7.50
2019-02-26T05:10:01.928Z,9.00
2019-02-26T05:15:04.998Z,7.20
2019-02-26T05:20:10.457Z,8.00
2019-02-26T05:25:16.987Z,6.60
2019-02-26T05:30:22.303Z,6.80
2019-02-26T05:35:25.430Z,8.75
2019-02-26T05:40:29.229Z,7.00
2019-02-26T05:45:35.564Z,7.00
2019-02-26T05:50:41.179Z,6.00
2019-02-26T05:55:47.479Z,7.60
2019-02-26T06:00:49.581Z,8.00
2019-02-26T06:05:55.534Z,7.00
2019-02-26T06:10:58.846Z,6.25
2019-02-26T06:16:04.787Z,6.00
2019-02-26T06:21:08.132Z,7.80
2019-02-26T06:26:14.887Z,6.50
2019-02-26T06:31:19.423Z,6.00
2019-02-26T06:36:23.468Z,6.00
2019-02-26T06:41:28.445Z,7.25
2019-02-26T06:46:33.698Z,6.00
2019-02-26T06:51:37.742Z,7.40
2019-02-26T06:56:43.898Z,7.50
2019-02-26T07:01:47.016Z,6.25
2019-02-26T07:06:50.793Z,6.80
2019-02-26T07:11:54.635Z,6.00
2019-02-26T07:16:59.186Z,7.00
2019-02-26T07:22:05.310Z,6.50
2019-02-26T07:27:11.273Z,7.00
2019-02-26T07:32:15.422Z,6.00
2019-02-26T07:37:19.952Z,6.00
2019-02-26T07:42:23.757Z,35.60
2019-02-26T07:47:29.422Z,31.25
2019-02-26T07:52:33.157Z,29.00
2019-02-26T07:57:37.360Z,30.80
2019-02-26T08:02:41.155Z,26.40
2019-02-26T08:07:46.653Z,29.25
2019-02-26T08:12:50.443Z,34.50
2019-02-26T08:17:57.530Z,29.60
2019-02-26T08:23:01.385Z,21.25
2019-02-26T08:28:05.301Z,18.50
2019-02-26T08:33:09.093Z,17.00
2019-02-26T08:38:12.884Z,18.75
2019-02-26T08:43:16.701Z,14.75
2019-02-26T08:48:22.367Z,11.75
2019-02-26T08:53:26.691Z,12.25
2019-02-26T08:58:31.786Z,11.50
2019-02-26T09:03:40.686Z,13.75
2019-02-26T09:08:43.026Z,11.00
2019-02-26T09:13:46.592Z,10.75
2019-02-26T09:18:50.453Z,11.50
2019-02-26T09:23:56.932Z,11.25
2019-02-26T09:28:59.852Z,9.25
2019-02-26T09:34:03.674Z,11.75
2019-02-26T09:39:08.745Z,10.00
2019-02-26T09:44:13.458Z,11.00
2019-02-26T09:49:17.289Z,8.25
2019-02-26T09:54:22.587Z,11.20
2019-02-26T09:59:28.861Z,8.20
2019-02-26T10:04:32.516Z,8.20
2019-02-26T10:09:37.439Z,11.75
2019-02-26T10:14:41.829Z,8.50
2019-02-26T10:19:45.656Z,8.00
2019-02-26T10:24:49.452Z,11.50
2019-02-26T10:29:53.297Z,10.20
2019-02-26T10:34:57.070Z,9.40
2019-02-26T10:40:00.957Z,8.00
2019-02-26T10:45:05.342Z,10.75
2019-02-26T10:50:13.052Z,8.00
2019-02-26T10:55:17.618Z,21.60
2019-02-26T11:00:25.939Z,14.80
2019-02-26T11:05:29.909Z,12.20
2019-02-26T11:10:33.727Z,16.20
2019-02-26T11:15:37.650Z,17.00
2019-02-26T11:20:41.447Z,13.60
2019-02-26T11:25:45.284Z,16.75
2019-02-26T11:30:51.534Z,16.40
2019-02-26T11:35:54.591Z,15.00
2019-02-26T11:40:58.432Z,13.50
2019-02-26T11:46:03.929Z,16.00
2019-02-26T11:51:07.746Z,14.00
2019-02-26T11:56:13.183Z,13.20
2019-02-26T12:01:18.055Z,15.40
2019-02-26T12:06:21.832Z,15.75
2019-02-26T12:11:25.612Z,13.25
2019-02-26T12:16:29.391Z,14.00
2019-02-26T12:21:34.588Z,13.25
2019-02-26T12:26:38.699Z,13.00
2019-02-26T12:31:42.481Z,13.75
2019-02-26T12:36:48.042Z,13.80
2019-02-26T12:41:51.798Z,13.20
2019-02-26T12:46:56.827Z,27.75
2019-02-26T12:52:03.256Z,23.20
2019-02-26T12:57:06.593Z,22.75
2019-02-26T13:02:13.940Z,27.00
2019-02-26T13:07:15.984Z,25.00
2019-02-26T13:12:23.273Z,20.00
2019-02-26T13:17:28.176Z,21.75
2019-02-26T13:22:31.009Z,19.80
2019-02-26T13:27:35.237Z,19.00
2019-02-26T13:32:55.436Z,18.75
2019-02-26T13:37:45.490Z,19.00
2019-02-26T13:48:00.963Z,17.00
2019-02-26T13:53:00.717Z,17.60
2019-02-26T13:58:11.505Z,13.60
2019-02-26T14:03:10.021Z,15.00
2019-02-26T14:08:13.865Z,12.00
2019-02-26T14:13:17.642Z,13.00
2019-02-26T14:18:21.438Z,13.25
2019-02-26T14:23:25.218Z,11.00
2019-02-26T14:28:28.999Z,11.75
2019-02-26T14:33:32.778Z,10.50
2019-02-26T14:38:36.579Z,12.00
2019-02-26T14:43:40.470Z,13.60
2019-02-26T14:48:44.334Z,9.00
2019-02-26T14:53:49.229Z,11.50
2019-02-26T14:58:53.095Z,8.75
2019-02-26T15:03:56.882Z,8.00
2019-02-26T15:09:00.699Z,8.25
2019-02-26T15:14:04.475Z,11.00
2019-02-26T15:19:08.257Z,8.80
2019-02-26T15:24:12.121Z,10.75
2019-02-26T15:29:15.905Z,10.25
2019-02-26T15:34:19.672Z,8.75
2019-02-26T15:39:23.438Z,7.60
2019-02-26T15:44:28.779Z,7.20
2019-02-26T15:49:32.843Z,7.00
2019-02-26T15:54:36.675Z,6.50
2019-02-26T15:59:40.510Z,7.00
2019-02-26T16:04:44.316Z,7.00
2019-02-26T16:09:48.089Z,8.00
2019-02-26T16:14:51.896Z,8.60
2019-02-26T16:19:55.698Z,7.50
2019-02-26T16:24:59.513Z,6.20
2019-02-26T16:30:03.474Z,6.40
2019-02-26T16:35:07.285Z,7.80
2019-02-26T16:40:11.160Z,6.00
2019-02-26T16:45:17.106Z,7.80
2019-02-26T16:50:22.079Z,8.25
2019-02-26T16:55:25.871Z,6.00
2019-02-26T17:00:29.671Z,8.25
2019-02-26T17:05:33.570Z,6.00
2019-02-26T17:10:37.392Z,6.25
2019-02-26T17:15:41.311Z,7.20
2019-02-26T17:20:45.208Z,7.50
2019-02-26T17:25:49.073Z,8.00
2019-02-26T17:30:53.132Z,7.50
2019-02-26T17:35:57.105Z,6.75
2019-02-26T17:41:03.041Z,5.50
2019-02-26T17:46:07.876Z,7.00
2019-02-26T17:51:12.411Z,5.50
2019-02-26T17:56:16.188Z,5.75
2019-02-26T18:01:20.051Z,5.00
2019-02-26T18:06:23.834Z,6.00
2019-02-26T18:11:27.752Z,7.75
2019-02-26T18:16:31.761Z,6.25
2019-02-26T18:21:37.126Z,4.25
2019-02-26T18:26:40.906Z,4.75
2019-02-26T18:31:44.722Z,4.00
2019-02-26T18:36:48.702Z,4.75
2019-02-26T18:41:52.642Z,7.00
2019-02-26T18:46:56.518Z,5.00
2019-02-26T18:52:00.337Z,6.50
2019-02-26T18:57:04.120Z,5.80
2019-02-26T19:02:07.930Z,7.50
2019-02-26T19:07:11.728Z,7.00
2019-02-26T19:12:15.518Z,7.75
2019-02-26T19:17:19.308Z,4.80
2019-02-26T19:22:26.526Z,8.25
2019-02-26T19:27:28.637Z,8.50
2019-02-26T19:32:32.506Z,8.50
2019-02-26T19:37:36.276Z,7.20
2019-02-26T19:42:40.056Z,9.25
2019-02-26T19:47:43.949Z,8.25
2019-02-26T19:52:56.436Z,10.00
2019-02-26T19:57:53.281Z,10.60
2019-02-26T20:02:57.054Z,11.75
2019-02-26T20:08:04.876Z,12.00
2019-02-26T20:13:12.283Z,12.75
2019-02-26T20:18:20.065Z,13.50
2019-02-26T20:23:17.622Z,15.00
2019-02-26T20:28:21.512Z,17.40
2019-02-26T20:33:25.317Z,15.00
2019-02-26T20:38:32.305Z,18.25
2019-02-26T20:43:36.749Z,15.75
2019-02-26T20:48:40.222Z,14.80
2019-02-26T20:53:44.052Z,14.25
2019-02-26T20:58:47.832Z,17.75
2019-02-26T21:03:51.659Z,14.25
2019-02-26T21:08:55.465Z,13.40
2019-02-26T21:13:59.311Z,12.20
2019-02-26T21:19:03.531Z,10.50
2019-02-26T21:24:07.375Z,13.50
2019-02-26T21:29:11.948Z,13.00
2019-02-26T21:34:15.841Z,11.00
2019-02-26T21:39:19.702Z,11.50
2019-02-26T21:44:23.500Z,8.50
2019-02-26T21:49:27.278Z,11.80
2019-02-26T21:54:31.062Z,9.80
2019-02-26T21:59:34.850Z,11.50
2019-02-26T22:04:38.637Z,9.25
2019-02-26T22:09:42.422Z,9.20
2019-02-26T22:14:46.262Z,12.00
2019-02-26T22:19:50.030Z,9.00
2019-02-26T22:24:53.810Z,9.00
2019-02-26T22:29:57.681Z,10.00
2019-02-26T22:35:01.619Z,10.00
2019-02-26T22:40:06.679Z,10.00
2019-02-26T22:45:10.719Z,9.40
2019-02-26T22:50:14.529Z,10.00
2019-02-26T22:55:18.375Z,9.25
2019-02-26T23:00:48.272Z,8.75
2019-02-26T23:05:49.873Z,11.75
2019-02-26T23:10:56.871Z,9.00
2019-02-26T23:15:59.243Z,9.25
2019-02-26T23:21:03.047Z,9.00
2019-02-26T23:26:08.908Z,9.60
2019-02-26T23:31:12.771Z,10.00
2019-02-26T23:42:16.522Z,8.25
2019-02-26T23:47:22.287Z,8.50
2019-02-26T23:52:27.730Z,9.20
2019-02-26T23:57:31.309Z,11.80
